Time;durP1;ratioP1;P1;durP2;ratioP2;P2;SDS_P1;SDS_P2;PMS_P1;PMS_P2;Temp;Humidity;BMP_temperature;BMP_pressure;BME280_temperature;BME280_humidity;BME280_pressure;Samples;Min_cycle;Max_cycle;Signal;HPM_P1;HPM_P2
2022/12/27 00:02:08;;;;;;;9.02;2.13;;;6.60;1.00;;;;;;5091273;28;20270;-77
2022/12/27 00:04:36;;;;;;;7.22;1.90;;;6.60;1.00;;;;;;5093468;28;20224;-77
2022/12/27 00:07:05;;;;;;;9.45;1.80;;;6.60;1.00;;;;;;5091759;28;20728;-77
2022/12/27 00:09:36;;;;;;;6.65;2.10;;;6.60;1.00;;;;;;5094387;28;20252;-79
2022/12/27 00:12:04;;;;;;;7.72;2.25;;;6.60;1.00;;;;;;5093115;28;20324;-77
2022/12/27 00:14:36;;;;;;;6.82;2.13;;;6.50;1.00;;;;;;5091673;28;20229;-80
2022/12/27 00:17:03;;;;;;;11.35;2.33;;;6.40;1.00;;;;;;5092348;28;20260;-77
2022/12/27 00:19:34;;;;;;;7.95;2.20;;;6.30;1.00;;;;;;5090916;28;20271;-77
2022/12/27 00:22:01;;;;;;;9.20;2.47;;;6.20;1.00;;;;;;5090275;28;20289;-81
2022/12/27 00:24:39;;;;;;;7.63;2.17;;;6.10;1.00;;;;;;5095340;28;21106;-77
2022/12/27 00:27:06;;;;;;;8.18;2.30;;;6.00;1.00;;;;;;5094335;28;20330;-77
2022/12/27 00:29:36;;;;;;;11.38;2.42;;;5.90;1.00;;;;;;5093002;28;20235;-80
2022/12/27 00:32:03;;;;;;;6.20;2.05;;;5.80;1.00;;;;;;5093375;28;20247;-81
2022/12/27 00:34:34;;;;;;;7.65;2.28;;;5.80;1.00;;;;;;5097933;28;20287;-81
2022/12/27 00:37:01;;;;;;;6.68;1.70;;;5.70;1.00;;;;;;5098468;28;20282;-77
2022/12/27 00:39:37;;;;;;;7.38;1.98;;;5.70;1.00;;;;;;5096339;28;20294;-78
2022/12/27 00:42:04;;;;;;;7.05;2.15;;;5.70;1.00;;;;;;5097753;28;20247;-78
2022/12/27 00:44:36;;;;;;;13.45;2.65;;;5.80;1.00;;;;;;5099326;28;20228;-75
2022/12/27 00:47:03;;;;;;;6.38;1.75;;;5.80;1.00;;;;;;5091083;28;20236;-76
2022/12/27 00:49:35;;;;;;;9.13;2.47;;;5.80;1.00;;;;;;5099576;28;20355;-79
2022/12/27 00:52:01;;;;;;;8.00;2.17;;;5.80;1.00;;;;;;5094960;28;20663;-78
2022/12/27 00:54:31;;;;;;;10.32;1.92;;;5.80;1.00;;;;;;5098826;28;21163;-77
2022/12/27 00:56:58;;;;;;;8.10;2.45;;;5.70;1.00;;;;;;5093598;28;21186;-77
2022/12/27 00:59:25;;;;;;;7.20;2.30;;;5.60;1.00;;;;;;5089219;28;20318;-80
2022/12/27 01:01:56;;;;;;;7.25;2.30;;;5.50;1.00;;;;;;5085835;28;20301;-79
2022/12/27 01:04:23;;;;;;;9.90;2.33;;;5.40;1.00;;;;;;5092208;28;20232;-80
2022/12/27 01:06:51;;;;;;;9.52;2.10;;;5.30;1.00;;;;;;5096502;28;20260;-79
2022/12/27 01:09:18;;;;;;;12.63;2.10;;;5.30;1.00;;;;;;5092103;28;20236;-79
2022/12/27 01:11:46;;;;;;;8.90;2.05;;;5.30;1.00;;;;;;5092414;28;20235;-78
2022/12/27 01:14:16;;;;;;;11.20;2.28;;;5.20;1.00;;;;;;5090489;28;20794;-76
2022/12/27 01:16:43;;;;;;;7.10;1.80;;;5.20;1.00;;;;;;5091155;28;20648;-79
2022/12/27 01:19:11;;;;;;;10.55;2.85;;;5.10;1.00;;;;;;5093095;28;20323;-77
2022/12/27 01:21:38;;;;;;;6.47;2.20;;;5.10;1.00;;;;;;5097189;28;20240;-82
2022/12/27 01:24:06;;;;;;;5.00;2.35;;;5.00;1.00;;;;;;5092416;28;20999;-77
2022/12/27 01:26:36;;;;;;;11.35;2.10;;;5.00;1.00;;;;;;5096075;28;20239;-78
2022/12/27 01:29:05;;;;;;;17.20;2.72;;;5.00;1.00;;;;;;5091632;28;20286;-80
2022/12/27 01:31:36;;;;;;;9.15;2.50;;;5.00;1.00;;;;;;5090077;28;20232;-79
2022/12/27 01:34:03;;;;;;;8.85;2.45;;;4.90;1.00;;;;;;5095482;28;20229;-79
2022/12/27 01:36:39;;;;;;;8.40;2.20;;;4.90;1.00;;;;;;5097148;28;20331;-79
2022/12/27 01:39:07;;;;;;;8.13;2.72;;;4.90;1.00;;;;;;5093474;28;20233;-78
2022/12/27 01:44:49;;;;;;;14.23;2.60;;;4.80;1.00;;;;;;5091828;28;20233;-78
2022/12/27 01:47:26;;;;;;;8.23;3.92;;;4.80;1.00;;;;;;5066310;28;20243;-79
2022/12/27 01:50:07;;;;;;;8.32;2.20;;;4.70;1.00;;;;;;5093088;27;20220;-77
2022/12/27 01:52:38;;;;;;;9.77;2.22;;;4.70;1.00;;;;;;5095570;28;20232;-80
2022/12/27 01:55:18;;;;;;;9.35;2.75;;;4.60;1.00;;;;;;5096237;28;20231;-79
2022/12/27 01:57:46;;;;;;;9.57;2.20;;;4.60;1.00;;;;;;5093084;28;20246;-77
2022/12/27 02:00:19;;;;;;;8.13;2.40;;;4.60;1.00;;;;;;5095781;28;20258;-79
2022/12/27 02:02:46;;;;;;;8.90;2.17;;;4.50;1.00;;;;;;5092781;28;20268;-76
2022/12/27 02:05:20;;;;;;;7.13;3.00;;;4.50;1.00;;;;;;5094651;28;20233;-76
2022/12/27 02:07:57;;;;;;;7.50;2.90;;;4.50;1.00;;;;;;5091414;28;20236;-79
2022/12/27 02:10:25;;;;;;;7.07;2.42;;;4.50;1.00;;;;;;5093325;28;20328;-77
2022/12/27 02:12:58;;;;;;;9.80;3.40;;;4.40;1.00;;;;;;5090106;28;20229;-79
2022/12/27 02:15:26;;;;;;;7.45;2.33;;;4.40;1.00;;;;;;5090907;28;20341;-77
2022/12/27 02:17:57;;;;;;;6.00;2.10;;;4.40;1.00;;;;;;5087981;28;20247;-81
2022/12/27 02:20:31;;;;;;;8.40;2.90;;;4.30;1.00;;;;;;5092525;28;20236;-77
2022/12/27 02:26:48;;;;;;;9.18;2.67;;;4.30;1.00;;;;;;5079501;28;20231;-77
2022/12/27 02:29:56;;;;;;;9.00;2.22;;;4.30;1.00;;;;;;5058781;28;20216;-78
2022/12/27 02:32:29;;;;;;;9.18;2.78;;;4.30;1.00;;;;;;5090749;28;20912;-77
2022/12/27 02:35:06;;;;;;;7.65;2.35;;;4.20;1.00;;;;;;5094292;28;20219;-77
2022/12/27 02:37:41;;;;;;;6.78;2.50;;;4.20;1.00;;;;;;5094718;28;20243;-80
2022/12/27 02:54:43;;;;;;;10.38;2.35;;;4.20;1.00;;;;;;5083325;28;20228;-76
2022/12/27 02:57:22;;;;;;;6.93;2.00;;;4.20;1.00;;;;;;5094240;28;20242;-79
2022/12/27 03:03:27;;;;;;;10.48;1.95;;;4.20;1.00;;;;;;5088493;28;20227;-77
2022/12/27 03:06:42;;;;;;;12.88;3.20;;;4.10;1.00;;;;;;5091592;28;20216;-80
2022/12/27 03:18:25;;;;;;;9.95;2.22;;;4.00;1.00;;;;;;5084498;28;21062;-79
2022/12/27 03:26:37;;;;;;;9.40;2.10;;;4.00;1.00;;;;;;5089979;28;20977;-80
2022/12/27 03:35:00;;;;;;;13.48;2.35;;;3.90;1.00;;;;;;5089160;28;20315;-80
2022/12/27 03:40:28;;;;;;;6.35;2.25;;;3.90;1.00;;;;;;5084493;28;20236;-77
2022/12/27 03:43:10;;;;;;;9.30;2.40;;;3.90;1.00;;;;;;5090193;28;20259;-80
2022/12/27 03:49:02;;;;;;;7.90;2.50;;;3.90;1.00;;;;;;5091450;28;20233;-77
2022/12/27 03:51:37;;;;;;;7.15;2.30;;;3.90;1.00;;;;;;5092652;28;20256;-78
2022/12/27 03:54:08;;;;;;;6.00;2.17;;;3.90;1.00;;;;;;5096964;28;20281;-80
2022/12/27 03:56:40;;;;;;;7.65;2.45;;;4.00;1.00;;;;;;5089823;28;20247;-77
2022/12/27 03:59:08;;;;;;;7.15;2.15;;;4.00;1.00;;;;;;5093532;28;20295;-78
2022/12/27 04:01:38;;;;;;;5.32;2.00;;;4.00;1.00;;;;;;5091301;28;20231;-80
2022/12/27 04:04:05;;;;;;;9.95;2.45;;;4.10;1.00;;;;;;5090885;28;20283;-77
2022/12/27 04:06:38;;;;;;;7.50;2.42;;;4.10;1.00;;;;;;5094417;28;20301;-76
2022/12/27 04:36:42;;;;;;;9.02;3.20;;;3.70;1.00;;;;;;5094667;28;20306;-79
2022/12/27 04:39:16;;;;;;;9.35;2.78;;;3.80;1.00;;;;;;5094157;28;20251;-80
2022/12/27 04:55:41;;;;;;;8.25;2.80;;;4.00;1.00;;;;;;5097764;28;20217;-81
2022/12/27 04:58:08;;;;;;;10.20;3.25;;;3.90;1.00;;;;;;5095809;28;20304;-81
2022/12/27 05:03:26;;;;;;;9.45;2.80;;;3.90;1.00;;;;;;5072282;28;20485;-77
2022/12/27 05:06:05;;;;;;;8.07;3.00;;;3.80;1.00;;;;;;5070070;28;20253;-76
2022/12/27 05:14:17;;;;;;;9.45;2.70;;;4.00;1.00;;;;;;5070805;28;20228;-77
2022/12/27 05:16:45;;;;;;;6.70;3.40;;;4.00;1.00;;;;;;5074974;28;20718;-78
2022/12/27 05:19:17;;;;;;;8.43;2.85;;;3.90;1.00;;;;;;5073685;28;20233;-76
2022/12/27 05:25:33;;;;;;;9.63;2.90;;;3.90;1.00;;;;;;5075270;28;20233;-77
2022/12/27 05:27:28;;;;;;;9.20;3.40;;;3.80;1.00;;;;;;5054279;28;20229;-79
2022/12/27 05:29:58;;;;;;;6.22;2.60;;;3.80;1.00;;;;;;5073826;28;20260;-80
2022/12/27 05:32:25;;;;;;;10.27;3.75;;;3.80;1.00;;;;;;5076287;28;20242;-80
2022/12/27 05:34:54;;;;;;;14.10;3.90;;;3.90;1.00;;;;;;5076594;28;20229;-80
2022/12/27 05:37:23;;;;;;;9.13;3.08;;;4.00;1.00;;;;;;5079194;28;20235;-81
2022/12/27 05:39:50;;;;;;;10.82;3.13;;;4.10;1.00;;;;;;5079007;28;20237;-78
2022/12/27 05:42:18;;;;;;;5.95;2.88;;;4.10;1.00;;;;;;5073572;28;20225;-80
2022/12/27 05:44:47;;;;;;;8.90;2.40;;;4.20;1.00;;;;;;5075465;28;20233;-79
2022/12/27 05:47:17;;;;;;;9.88;3.08;;;4.30;1.00;;;;;;5057978;28;20230;-77
2022/12/27 05:49:44;;;;;;;12.52;2.75;;;4.40;1.00;;;;;;5070438;28;20237;-78
2022/12/27 05:52:16;;;;;;;11.35;2.40;;;4.50;1.00;;;;;;5067954;28;20353;-80
2022/12/27 05:54:43;;;;;;;6.95;2.95;;;4.60;1.00;;;;;;5071675;28;20277;-80
2022/12/27 05:57:10;;;;;;;7.50;2.00;;;4.50;1.00;;;;;;5072314;28;20268;-81
2022/12/27 05:59:38;;;;;;;6.72;1.83;;;4.50;1.00;;;;;;5077077;28;20221;-80
2022/12/27 06:02:06;;;;;;;5.90;2.40;;;4.60;1.00;;;;;;5071382;28;20237;-80
2022/12/27 06:04:38;;;;;;;10.43;2.70;;;4.60;1.00;;;;;;5070678;28;20225;-80
2022/12/27 06:07:05;;;;;;;5.25;2.00;;;4.60;1.00;;;;;;5074761;28;20287;-80
2022/12/27 06:09:39;;;;;;;9.25;4.35;;;4.60;1.00;;;;;;5071043;28;20264;-80
2022/12/27 06:12:06;;;;;;;6.97;2.65;;;4.50;1.00;;;;;;5075148;28;20232;-78
2022/12/27 06:14:38;;;;;;;4.82;2.67;;;4.40;1.00;;;;;;5067441;28;20221;-77
2022/12/27 06:17:06;;;;;;;6.32;2.35;;;4.30;1.00;;;;;;5075032;28;20239;-80
2022/12/27 06:19:38;;;;;;;11.23;2.90;;;4.30;1.00;;;;;;5072134;28;20237;-79
2022/12/27 06:22:07;;;;;;;7.93;2.28;;;4.20;1.00;;;;;;5073225;28;20241;-79
2022/12/27 06:24:38;;;;;;;4.88;1.90;;;4.10;1.00;;;;;;5070492;28;20222;-81
2022/12/27 06:27:05;;;;;;;7.25;2.67;;;4.00;1.00;;;;;;5068973;28;20825;-79
2022/12/27 06:29:33;;;;;;;8.95;2.78;;;4.00;1.00;;;;;;5071403;28;20298;-81
2022/12/27 06:32:00;;;;;;;7.57;3.42;;;3.90;1.00;;;;;;5073025;28;20328;-79
2022/12/27 06:34:28;;;;;;;6.28;2.22;;;3.90;1.00;;;;;;5072019;28;20345;-78
2022/12/27 06:36:58;;;;;;;5.20;2.20;;;3.90;1.00;;;;;;5060782;28;20233;-76
2022/12/27 06:39:25;;;;;;;8.90;2.40;;;3.80;1.00;;;;;;5070624;28;20258;-80
2022/12/27 06:41:54;;;;;;;6.20;2.20;;;3.70;1.00;;;;;;5063133;28;20261;-79
2022/12/27 06:44:24;;;;;;;4.88;2.20;;;3.70;1.00;;;;;;5065933;28;20279;-81
2022/12/27 06:46:56;;;;;;;8.10;2.70;;;3.70;1.00;;;;;;5073410;28;20770;-77
2022/12/27 06:49:24;;;;;;;6.35;2.55;;;3.60;1.00;;;;;;5071025;28;21056;-77
2022/12/27 06:51:57;;;;;;;6.93;2.30;;;3.60;1.00;;;;;;5074850;28;20645;-80
2022/12/27 06:54:24;;;;;;;9.55;2.35;;;3.60;1.00;;;;;;5080819;28;21028;-80
2022/12/27 06:56:56;;;;;;;8.68;2.20;;;3.70;1.00;;;;;;5075682;28;20253;-80
2022/12/27 06:59:23;;;;;;;7.80;2.67;;;3.80;1.00;;;;;;5078670;28;20317;-77
2022/12/27 07:01:50;;;;;;;9.73;3.25;;;3.80;1.00;;;;;;5080348;28;21113;-78
2022/12/27 07:04:18;;;;;;;8.52;2.38;;;3.80;1.00;;;;;;5090684;28;20212;-77
2022/12/27 07:06:45;;;;;;;5.55;2.20;;;3.80;1.00;;;;;;5090465;28;20240;-78
2022/12/27 07:09:21;;;;;;;7.03;2.42;;;3.80;1.00;;;;;;5092367;28;20236;-76
2022/12/27 07:11:48;;;;;;;6.45;2.95;;;3.80;1.00;;;;;;5094573;28;20270;-77
2022/12/27 07:14:18;;;;;;;8.35;2.08;;;3.80;1.00;;;;;;5091032;28;20224;-78
2022/12/27 07:16:45;;;;;;;9.40;3.40;;;3.70;1.00;;;;;;5090750;28;20228;-78
2022/12/27 07:19:17;;;;;;;10.85;4.22;;;3.70;1.00;;;;;;5091798;28;21141;-78
2022/12/27 07:21:44;;;;;;;7.13;2.40;;;3.80;1.00;;;;;;5088969;28;20625;-77
2022/12/27 07:24:18;;;;;;;7.70;2.45;;;3.80;1.00;;;;;;5092880;28;20867;-77
2022/12/27 07:26:45;;;;;;;7.43;2.70;;;3.90;1.00;;;;;;5091809;28;20335;-79
2022/12/27 07:29:17;;;;;;;7.38;2.58;;;4.00;1.00;;;;;;5091268;28;20735;-77
2022/12/27 07:31:44;;;;;;;7.43;2.58;;;4.10;1.00;;;;;;5086473;28;20260;-77
2022/12/27 07:34:11;;;;;;;8.48;2.65;;;4.20;1.00;;;;;;5085491;28;20324;-76
2022/12/27 07:36:40;;;;;;;6.55;2.35;;;4.20;1.00;;;;;;5088595;28;20228;-78
2022/12/27 07:39:08;;;;;;;6.43;2.75;;;4.20;1.00;;;;;;5087092;28;20333;-80
2022/12/27 07:41:41;;;;;;;6.57;2.20;;;4.30;1.00;;;;;;5083859;28;20232;-78
2022/12/27 07:44:09;;;;;;;5.30;2.20;;;4.40;1.00;;;;;;5087155;28;20240;-77
2022/12/27 07:46:39;;;;;;;7.32;3.60;;;4.40;1.00;;;;;;5087740;28;20232;-77
2022/12/27 07:49:06;;;;;;;5.30;2.50;;;4.40;1.00;;;;;;5087861;28;20224;-79
2022/12/27 07:51:38;;;;;;;11.45;3.67;;;4.40;1.00;;;;;;5094276;28;20562;-76
2022/12/27 07:54:09;;;;;;;12.13;2.65;;;4.50;1.00;;;;;;5092336;28;20877;-79
2022/12/27 07:56:38;;;;;;;5.65;2.25;;;4.60;1.00;;;;;;5090867;28;20231;-79
2022/12/27 07:59:10;;;;;;;8.88;2.70;;;4.60;1.00;;;;;;5094789;28;20248;-79
2022/12/27 08:04:23;;;;;;;7.38;3.03;;;4.70;1.00;;;;;;5075088;28;20998;-80
2022/12/27 08:06:50;;;;;;;11.13;2.58;;;4.70;1.00;;;;;;5087123;28;20244;-78
2022/12/27 08:09:29;;;;;;;7.72;3.00;;;4.80;1.00;;;;;;5080744;28;20294;-78
2022/12/27 08:11:56;;;;;;;7.35;2.20;;;4.80;1.00;;;;;;5083102;28;20235;-78
2022/12/27 08:14:25;;;;;;;6.18;2.45;;;4.70;1.00;;;;;;5082295;28;20232;-79
2022/12/27 08:16:52;;;;;;;12.25;2.70;;;4.80;1.00;;;;;;5083209;28;20256;-79
2022/12/27 08:19:23;;;;;;;5.85;2.50;;;4.80;1.00;;;;;;5085233;28;20247;-78
2022/12/27 08:21:50;;;;;;;8.23;2.45;;;4.80;1.00;;;;;;5083155;28;20721;-78
2022/12/27 08:24:17;;;;;;;6.78;3.05;;;4.80;1.00;;;;;;5087487;28;20244;-78
2022/12/27 08:26:45;;;;;;;6.60;2.20;;;4.70;1.00;;;;;;5083986;28;21159;-77
2022/12/27 08:29:12;;;;;;;6.35;2.65;;;4.60;1.00;;;;;;5087539;28;20290;-76
2022/12/27 08:31:40;;;;;;;6.22;2.35;;;4.50;1.00;;;;;;5084053;28;20330;-77
2022/12/27 08:34:07;;;;;;;10.98;2.70;;;4.50;1.00;;;;;;5089960;28;20233;-77
2022/12/27 08:36:40;;;;;;;9.23;3.08;;;4.40;1.00;;;;;;5088313;28;20236;-77
2022/12/27 08:39:07;;;;;;;5.90;2.42;;;4.40;1.00;;;;;;5088622;28;20282;-77
2022/12/27 08:41:43;;;;;;;6.80;3.55;;;4.40;1.00;;;;;;5089000;28;20240;-77
2022/12/27 08:44:10;;;;;;;8.55;2.30;;;4.50;1.00;;;;;;5089165;28;21022;-77
2022/12/27 08:46:40;;;;;;;5.95;3.25;;;4.50;1.00;;;;;;5089070;28;20251;-77
2022/12/27 08:49:07;;;;;;;5.55;2.75;;;4.60;1.00;;;;;;5089565;28;21022;-78
2022/12/27 08:51:34;;;;;;;6.18;2.30;;;4.60;1.00;;;;;;5086970;28;20376;-77
2022/12/27 08:54:01;;;;;;;6.68;2.65;;;4.70;1.00;;;;;;5090495;28;20728;-79
2022/12/27 08:56:28;;;;;;;7.60;2.90;;;4.70;1.00;;;;;;5093696;28;20240;-78
2022/12/27 08:58:59;;;;;;;10.68;2.90;;;4.80;1.00;;;;;;5089703;28;20287;-77
2022/12/27 09:01:26;;;;;;;6.50;2.95;;;4.80;1.00;;;;;;5093555;28;20237;-76
2022/12/27 09:04:02;;;;;;;9.05;3.08;;;4.90;1.00;;;;;;5091396;28;20236;-79
2022/12/27 09:06:29;;;;;;;10.32;3.20;;;5.00;1.00;;;;;;5093307;28;20228;-76
2022/12/27 09:09:00;;;;;;;11.57;3.15;;;5.10;1.00;;;;;;5093038;28;20299;-78
2022/12/27 09:11:30;;;;;;;6.25;2.60;;;5.20;1.00;;;;;;5093585;28;20240;-77
2022/12/27 09:13:59;;;;;;;5.47;2.60;;;5.20;1.00;;;;;;5092169;28;20236;-78
2022/12/27 09:16:30;;;;;;;9.05;3.30;;;5.30;1.00;;;;;;5097324;28;20275;-78
2022/12/27 09:19:01;;;;;;;8.20;2.85;;;5.30;1.00;;;;;;5075222;28;20237;-74
2022/12/27 09:21:33;;;;;;;7.93;2.65;;;5.40;1.00;;;;;;5097752;28;20240;-81
2022/12/27 09:24:01;;;;;;;5.88;2.72;;;5.50;1.00;;;;;;5090559;28;20233;-79
2022/12/27 09:26:31;;;;;;;6.45;3.72;;;5.60;1.00;;;;;;5101747;28;20237;-79
2022/12/27 09:29:00;;;;;;;5.55;3.03;;;5.50;1.00;;;;;;5098179;28;20236;-81
2022/12/27 09:31:32;;;;;;;7.80;3.13;;;5.40;1.00;;;;;;5091876;28;20254;-80
2022/12/27 09:34:07;;;;;;;7.95;3.25;;;5.40;1.00;;;;;;5096425;28;20272;-80
2022/12/27 09:36:38;;;;;;;6.45;3.22;;;5.50;1.00;;;;;;5091451;28;20289;-80
2022/12/27 09:39:09;;;;;;;5.40;2.40;;;5.60;1.00;;;;;;5092905;28;20319;-79
2022/12/27 09:41:44;;;;;;;7.30;3.03;;;5.60;1.00;;;;;;5094814;28;20245;-79
2022/12/27 09:44:15;;;;;;;6.88;3.17;;;5.70;1.00;;;;;;5091467;28;20232;-79
2022/12/27 09:46:51;;;;;;;8.15;3.65;;;5.60;1.00;;;;;;5092218;28;20240;-78
2022/12/27 09:49:27;;;;;;;7.97;3.13;;;5.60;1.00;;;;;;5092860;28;20236;-80
2022/12/27 09:52:00;;;;;;;6.45;2.50;;;5.80;1.00;;;;;;5090464;28;20244;-79
2022/12/27 09:54:32;;;;;;;8.50;3.05;;;6.00;1.00;;;;;;5095038;28;20237;-80
2022/12/27 09:57:01;;;;;;;7.90;3.00;;;6.40;1.00;;;;;;5092898;28;20240;-79
2022/12/27 09:59:34;;;;;;;6.13;3.35;;;6.80;1.00;;;;;;5095159;28;20244;-80
2022/12/27 10:02:01;;;;;;;7.30;2.88;;;6.80;1.00;;;;;;5097630;28;20596;-80
2022/12/27 10:04:35;;;;;;;7.68;3.22;;;6.80;1.00;;;;;;5096999;28;20266;-80
2022/12/27 10:07:16;;;;;;;11.32;3.60;;;6.80;1.00;;;;;;5094571;28;20236;-80
2022/12/27 10:09:56;;;;;;;9.27;2.88;;;7.00;1.00;;;;;;5100390;28;20242;-81
2022/12/27 10:12:47;;;;;;;8.52;3.50;;;7.30;1.00;;;;;;5095037;28;20236;-81
2022/12/27 10:15:25;;;;;;;7.80;3.03;;;7.50;1.00;;;;;;5093227;28;20244;-80
2022/12/27 10:18:05;;;;;;;7.10;3.30;;;7.50;1.00;;;;;;5091408;28;20259;-80
2022/12/27 10:20:49;;;;;;;6.32;3.00;;;7.30;1.00;;;;;;5097151;28;20319;-79
2022/12/27 10:23:20;;;;;;;5.97;3.45;;;7.10;1.00;;;;;;5096572;28;20250;-80
2022/12/27 10:25:49;;;;;;;7.95;2.95;;;7.10;1.00;;;;;;5091292;28;20236;-80
2022/12/27 10:28:24;;;;;;;7.55;2.90;;;7.00;1.00;;;;;;5093319;28;20267;-80
2022/12/27 10:30:52;;;;;;;6.85;3.20;;;6.90;1.00;;;;;;5091760;28;20240;-80
2022/12/27 10:33:22;;;;;;;11.40;3.70;;;6.80;1.00;;;;;;5093294;28;21134;-81
2022/12/27 10:35:50;;;;;;;9.65;3.75;;;6.80;1.00;;;;;;5093510;28;20279;-79
2022/12/27 10:38:17;;;;;;;6.45;3.40;;;7.40;1.00;;;;;;5067415;28;20266;-80
2022/12/27 10:40:51;;;;;;;5.53;3.30;;;8.00;1.00;;;;;;5092567;28;21066;-80
2022/12/27 10:43:21;;;;;;;7.95;3.10;;;7.60;1.00;;;;;;5097507;28;20236;-78
2022/12/27 10:45:49;;;;;;;8.07;3.20;;;7.40;1.00;;;;;;5095239;28;20228;-80
2022/12/27 10:48:19;;;;;;;8.07;3.13;;;7.50;1.00;;;;;;5090946;28;20232;-80
2022/12/27 10:50:53;;;;;;;9.70;3.85;;;7.20;1.00;;;;;;5093203;28;21065;-80
2022/12/27 10:53:54;;;;;;;8.10;3.55;;;7.20;1.00;;;;;;5093482;28;20292;-80
2022/12/27 10:56:35;;;;;;;6.40;3.83;;;7.30;1.00;;;;;;5092703;28;20256;-80
2022/12/27 10:59:13;;;;;;;8.02;3.70;;;7.20;1.00;;;;;;5091129;28;20287;-81
2022/12/27 11:01:42;;;;;;;6.18;3.25;;;7.20;1.00;;;;;;5091911;28;20232;-81
2022/12/27 11:04:13;;;;;;;8.27;4.22;;;7.10;1.00;;;;;;5085539;28;20236;-80
2022/12/27 11:06:43;;;;;;;6.90;3.38;;;7.10;1.00;;;;;;5092955;28;20268;-80
2022/12/27 11:09:29;;;;;;;8.57;3.40;;;7.00;1.00;;;;;;5089729;28;20299;-80
2022/12/27 11:12:18;;;;;;;7.70;3.15;;;7.00;1.00;;;;;;5091500;28;20310;-81
2022/12/27 11:14:57;;;;;;;7.38;3.45;;;7.00;1.00;;;;;;5091891;28;21854;-80
2022/12/27 11:17:27;;;;;;;6.65;3.10;;;7.00;1.00;;;;;;5098484;28;20293;-80
2022/12/27 11:19:57;;;;;;;10.48;3.08;;;6.90;1.00;;;;;;5092444;28;20236;-80
2022/12/27 11:22:28;;;;;;;10.20;3.65;;;6.90;1.00;;;;;;5091576;28;20228;-80
2022/12/27 11:25:00;;;;;;;6.90;3.50;;;6.90;1.00;;;;;;5082704;28;20244;-80
2022/12/27 11:27:29;;;;;;;9.35;4.10;;;6.80;1.00;;;;;;5095480;28;20236;-80
2022/12/27 11:29:59;;;;;;;6.68;3.50;;;6.80;1.00;;;;;;5095003;28;20351;-78
2022/12/27 11:32:27;;;;;;;6.50;3.40;;;6.80;1.00;;;;;;5095581;28;20259;-81
2022/12/27 11:34:56;;;;;;;9.48;3.85;;;6.80;1.00;;;;;;5092923;28;21067;-80
2022/12/27 11:37:27;;;;;;;7.82;3.83;;;6.80;1.00;;;;;;5096233;28;20243;-79
2022/12/27 11:40:10;;;;;;;9.77;3.85;;;6.70;1.00;;;;;;5090712;28;21060;-79
2022/12/27 11:42:46;;;;;;;7.70;3.90;;;6.70;1.00;;;;;;5092772;28;20243;-80
2022/12/27 11:45:20;;;;;;;7.32;3.45;;;6.70;1.00;;;;;;5092795;28;20231;-81
2022/12/27 11:47:53;;;;;;;7.00;3.75;;;6.60;1.00;;;;;;5076490;28;20262;-81
2022/12/27 11:50:48;;;;;;;7.03;3.70;;;6.70;1.00;;;;;;5100704;28;20212;-82
2022/12/27 11:53:43;;;;;;;12.32;5.05;;;6.70;1.00;;;;;;5068580;28;20236;-81
2022/12/27 11:56:20;;;;;;;10.73;5.13;;;6.80;1.00;;;;;;5092843;28;21220;-82
2022/12/27 11:59:22;;;;;;;5.80;3.55;;;7.00;1.00;;;;;;5096087;28;20234;-81
2022/12/27 12:02:06;;;;;;;7.20;3.53;;;7.00;1.00;;;;;;5091907;28;20235;-79
2022/12/27 12:05:10;;;;;;;5.97;3.58;;;6.90;1.00;;;;;;5099304;28;20243;-80
2022/12/27 12:07:50;;;;;;;8.10;3.83;;;6.90;1.00;;;;;;5065147;28;20235;-81
2022/12/27 12:10:30;;;;;;;10.15;4.07;;;6.90;1.00;;;;;;5090784;28;20236;-83
2022/12/27 12:13:51;;;;;;;;;;;;;;;;;;;;;
2022/12/27 12:17:13;;;;;;;6.82;3.92;;;6.90;1.00;;;;;;5077384;27;51965;-89
2022/12/27 12:19:59;;;;;;;9.93;4.40;;;7.00;1.00;;;;;;5093761;28;20413;-80
2022/12/27 12:22:54;;;;;;;11.38;4.10;;;7.00;1.00;;;;;;5101224;28;20230;-82
2022/12/27 12:26:09;;;;;;;7.28;3.35;;;7.10;1.00;;;;;;5096314;28;20966;-81
2022/12/27 12:29:31;;;;;;;6.93;3.60;;;7.10;1.00;;;;;;4995384;28;20231;-81
2022/12/27 12:32:28;;;;;;;11.05;3.97;;;7.20;1.00;;;;;;5023820;28;20328;-85
2022/12/27 12:35:21;;;;;;;8.77;3.90;;;7.20;1.00;;;;;;5105394;28;20236;-81
2022/12/27 12:38:11;;;;;;;8.95;3.80;;;7.20;1.00;;;;;;5098544;28;20224;-85
2022/12/27 12:41:07;;;;;;;6.80;3.05;;;7.20;1.00;;;;;;5100714;28;20267;-86
2022/12/27 12:43:57;;;;;;;12.02;3.80;;;7.20;1.00;;;;;;5104271;28;20263;-81
2022/12/27 12:46:38;;;;;;;7.18;3.95;;;7.60;1.00;;;;;;5102345;28;20236;-86
2022/12/27 12:49:38;;;;;;;9.82;3.75;;;8.30;1.00;;;;;;5101396;28;20236;-87
2022/12/27 12:52:57;;;;;;;9.07;4.50;;;10.20;1.00;;;;;;5104311;28;20232;-82
2022/12/27 12:55:55;;;;;;;8.83;3.00;;;11.30;1.00;;;;;;5068091;28;20208;-82
2022/12/27 12:58:50;;;;;;;8.20;3.10;;;11.10;1.00;;;;;;5066822;28;20466;-84
2022/12/27 13:05:01;;;;;;;9.40;3.45;;;9.50;1.00;;;;;;5105838;28;20228;-88
2022/12/27 13:07:50;;;;;;;10.52;3.15;;;9.20;1.00;;;;;;5107091;28;20227;-88
2022/12/27 13:10:53;;;;;;;8.63;4.03;;;10.00;1.00;;;;;;5102804;28;20239;-87
2022/12/27 13:13:50;;;;;;;6.60;3.27;;;11.00;1.00;;;;;;5073069;28;20462;-85
2022/12/27 13:16:34;;;;;;;7.93;3.35;;;10.60;1.00;;;;;;5102929;28;20425;-85
2022/12/27 13:19:16;;;;;;;7.10;3.50;;;10.00;1.00;;;;;;5105257;28;20236;-84
2022/12/27 13:22:07;;;;;;;9.52;3.80;;;9.60;1.00;;;;;;5106883;28;21269;-82
2022/12/27 13:24:56;;;;;;;6.70;3.57;;;9.30;1.00;;;;;;5098701;28;20243;-78
2022/12/27 13:27:34;;;;;;;9.30;3.30;;;8.90;1.00;;;;;;5106276;28;20491;-82
2022/12/27 13:30:29;;;;;;;6.75;3.58;;;8.50;1.00;;;;;;5100641;28;20232;-83
2022/12/27 13:33:17;;;;;;;7.28;4.20;;;8.30;1.00;;;;;;5103372;28;20233;-84
2022/12/27 13:36:08;;;;;;;6.97;3.40;;;8.10;1.00;;;;;;5100148;28;20233;-83
2022/12/27 13:39:10;;;;;;;8.63;3.55;;;8.00;1.00;;;;;;5100406;28;20290;-84
2022/12/27 13:41:57;;;;;;;8.70;4.22;;;7.80;1.00;;;;;;5102332;28;20228;-83
2022/12/27 13:44:48;;;;;;;7.40;3.30;;;7.70;1.00;;;;;;5107407;28;20288;-83
2022/12/27 13:47:55;;;;;;;10.38;4.10;;;7.50;1.00;;;;;;5106045;28;20224;-84
2022/12/27 13:51:08;;;;;;;13.40;4.47;;;7.40;1.00;;;;;;5102566;28;20239;-83
2022/12/27 13:54:20;;;;;;;9.20;4.32;;;7.40;1.00;;;;;;5038481;28;20235;-83
2022/12/27 13:57:11;;;;;;;7.80;2.90;;;7.30;1.00;;;;;;5043381;28;20339;-89
2022/12/27 14:00:19;;;;;;;10.70;4.55;;;7.10;1.00;;;;;;5099781;28;20244;-83
2022/12/27 14:03:28;;;;;;;7.78;3.10;;;7.00;1.00;;;;;;5084941;28;20236;-78
2022/12/27 14:06:28;;;;;;;7.63;3.50;;;7.00;1.00;;;;;;5102648;28;20498;-83
2022/12/27 14:09:41;;;;;;;12.85;3.70;;;6.90;1.00;;;;;;5074939;28;20457;-81
2022/12/27 14:12:47;;;;;;;9.13;3.55;;;7.00;1.00;;;;;;5063162;28;20244;-84
2022/12/27 14:15:19;;;;;;;8.50;4.32;;;6.90;1.00;;;;;;5100131;28;20322;-83
2022/12/27 14:17:58;;;;;;;11.73;4.30;;;6.90;1.00;;;;;;5104085;27;20247;-85
2022/12/27 14:20:56;;;;;;;8.80;3.50;;;6.90;1.00;;;;;;5109449;28;20571;-82
2022/12/27 14:23:42;;;;;;;7.78;3.70;;;6.80;1.00;;;;;;5093823;28;20262;-85
2022/12/27 14:26:41;;;;;;;8.95;3.55;;;6.80;1.00;;;;;;5101894;28;20234;-83
2022/12/27 14:29:58;;;;;;;9.65;4.32;;;6.80;1.00;;;;;;5104750;28;20212;-85
2022/12/27 14:33:13;;;;;;;9.50;4.28;;;6.80;1.00;;;;;;5057103;28;20249;-83
2022/12/27 14:36:14;;;;;;;9.75;4.30;;;6.80;1.00;;;;;;5095649;28;20991;-86
2022/12/27 14:39:28;;;;;;;7.95;3.67;;;6.70;1.00;;;;;;5082816;28;20235;-82
2022/12/27 14:42:36;;;;;;;9.63;4.18;;;6.70;1.00;;;;;;5090654;28;20236;-81
2022/12/27 14:45:40;;;;;;;10.25;4.30;;;6.70;1.00;;;;;;5099908;28;20267;-81
2022/12/27 14:48:52;;;;;;;11.07;4.05;;;6.60;1.00;;;;;;5073755;28;20235;-83
2022/12/27 14:51:49;;;;;;;13.10;4.25;;;6.60;1.00;;;;;;5102601;28;20242;-82
2022/12/27 14:54:56;;;;;;;8.70;4.07;;;6.50;1.00;;;;;;5095459;28;20294;-80
2022/12/27 14:57:39;;;;;;;8.45;3.25;;;6.50;1.00;;;;;;5091031;28;20233;-82
2022/12/27 15:00:16;;;;;;;7.07;3.60;;;6.40;1.00;;;;;;5102214;28;20236;-81
2022/12/27 15:03:08;;;;;;;8.93;3.83;;;6.30;1.00;;;;;;5080064;28;20248;-82
2022/12/27 15:05:58;;;;;;;9.77;4.32;;;6.30;1.00;;;;;;5078419;28;20630;-84
2022/12/27 15:08:54;;;;;;;8.80;3.85;;;6.20;1.00;;;;;;5077482;28;20280;-78
2022/12/27 15:11:51;;;;;;;8.50;4.65;;;6.10;1.00;;;;;;5077799;28;20359;-83
2022/12/27 15:14:56;;;;;;;15.65;4.70;;;6.10;1.00;;;;;;5077908;28;20998;-81
2022/12/27 15:17:41;;;;;;;7.90;4.25;;;6.00;1.00;;;;;;5068815;28;20229;-81
2022/12/27 15:20:30;;;;;;;12.52;4.80;;;6.00;1.00;;;;;;5082693;28;20232;-81
2022/12/27 15:23:08;;;;;;;9.73;4.78;;;6.00;1.00;;;;;;5080255;28;20255;-82
2022/12/27 15:25:58;;;;;;;11.52;4.03;;;5.90;1.00;;;;;;5083324;28;20307;-78
2022/12/27 15:28:47;;;;;;;7.85;3.90;;;5.90;1.00;;;;;;5071630;28;20303;-78
2022/12/27 15:31:32;;;;;;;7.10;4.60;;;5.80;1.00;;;;;;5080175;28;21004;-80
2022/12/27 15:34:15;;;;;;;6.28;3.58;;;5.80;1.00;;;;;;5076784;28;20236;-78
2022/12/27 15:36:50;;;;;;;7.78;4.18;;;5.90;1.00;;;;;;5079359;28;20363;-82
2022/12/27 15:39:49;;;;;;;8.82;4.20;;;5.80;1.00;;;;;;5079388;28;20236;-81
2022/12/27 15:42:56;;;;;;;9.90;4.07;;;5.80;1.00;;;;;;5076558;28;20288;-78
2022/12/27 15:45:47;;;;;;;9.70;5.03;;;5.70;1.00;;;;;;5049166;28;20296;-79
2022/12/27 15:48:48;;;;;;;9.20;3.65;;;5.70;1.00;;;;;;5079803;28;20265;-81
2022/12/27 15:51:30;;;;;;;8.68;4.63;;;5.60;1.00;;;;;;5070476;28;20236;-81
2022/12/27 15:54:27;;;;;;;8.43;4.15;;;5.60;1.00;;;;;;5081862;28;20225;-80